createdAt,value
2017-08-05T00:02:18.571Z,100292.36
2017-08-05T00:04:47.666Z,100286.25
2017-08-05T00:07:16.909Z,100281.33
2017-08-05T00:09:45.959Z,100274.25
2017-08-05T00:12:15.937Z,100265.38
2017-08-05T00:14:45.779Z,100259.19
2017-08-05T00:17:15.037Z,100256.77
2017-08-05T00:19:44.863Z,100260.67
2017-08-05T00:22:13.952Z,100263.38
2017-08-05T00:24:43.271Z,100263.95
2017-08-05T00:27:12.336Z,100270.44
2017-08-05T00:29:42.157Z,100276.09
2017-08-05T00:32:11.979Z,100278.06
2017-08-05T00:34:41.048Z,100280.43
2017-08-05T00:37:10.114Z,100283.42
2017-08-05T00:39:39.194Z,100270.20
2017-08-05T00:42:08.259Z,100266.51
2017-08-05T00:44:37.345Z,100267.50
2017-08-05T00:47:06.392Z,100269.47
2017-08-05T00:49:35.427Z,100262.33
2017-08-05T00:52:05.262Z,100262.31
2017-08-05T00:54:34.316Z,100264.27
2017-08-05T00:57:03.412Z,100269.34
2017-08-05T00:59:32.445Z,100260.87
2017-08-05T01:02:01.488Z,100265.02
2017-08-05T01:04:30.549Z,100262.31
2017-08-05T01:06:59.614Z,100253.60
2017-08-05T01:09:29.457Z,100257.70
2017-08-05T01:11:58.524Z,100251.53
2017-08-05T01:14:28.336Z,100253.09
2017-08-05T01:16:58.178Z,100259.13
2017-08-05T01:19:27.203Z,100259.50
2017-08-05T01:21:56.291Z,100256.16
2017-08-05T01:24:25.351Z,100248.43
2017-08-05T01:26:54.423Z,100258.24
2017-08-05T01:29:24.230Z,100253.65
2017-08-05T01:31:54.092Z,100245.33
2017-08-05T01:34:23.132Z,100247.08
2017-08-05T01:36:52.228Z,100251.94
2017-08-05T01:39:21.294Z,100242.27
2017-08-05T01:41:50.343Z,100232.04
2017-08-05T01:44:19.404Z,100240.62
2017-08-05T01:46:48.467Z,100240.02
2017-08-05T01:49:17.544Z,100241.98
2017-08-05T01:51:46.636Z,100244.29
2017-08-05T01:54:15.729Z,100245.31
2017-08-05T01:56:44.792Z,100241.63
2017-08-05T01:59:14.656Z,100241.08
2017-08-05T02:01:43.705Z,100247.37
2017-08-05T02:04:13.528Z,100256.22
2017-08-05T02:06:42.599Z,100261.34
2017-08-05T02:09:11.644Z,100261.97
2017-08-05T02:11:41.525Z,100261.80
2017-08-05T02:14:11.427Z,100268.70
2017-08-05T02:16:40.463Z,100272.47
2017-08-05T02:19:09.518Z,100266.83
2017-08-05T02:21:39.366Z,100276.88
2017-08-05T02:24:08.436Z,100271.42
2017-08-05T02:26:37.488Z,100271.23
2017-08-05T02:29:06.529Z,100265.16
2017-08-05T02:31:35.587Z,100263.35
2017-08-05T02:34:04.638Z,100261.98
2017-08-05T02:36:33.715Z,100255.83
2017-08-05T02:39:03.540Z,100259.58
2017-08-05T02:41:32.604Z,100260.80
2017-08-05T02:44:02.453Z,100267.31
2017-08-05T02:46:31.506Z,100262.00
2017-08-05T02:49:00.572Z,100266.78
2017-08-05T02:51:29.635Z,100271.31
2017-08-05T02:53:58.707Z,100277.04
2017-08-05T02:56:28.600Z,100276.45
2017-08-05T02:58:57.671Z,100270.01
2017-08-05T03:01:26.711Z,100266.09
2017-08-05T03:03:57.343Z,100268.91
2017-08-05T03:06:26.395Z,100271.27
2017-08-05T03:08:55.456Z,100274.57
2017-08-05T03:11:24.518Z,100280.06
2017-08-05T03:13:55.269Z,100278.86
2017-08-05T03:16:24.324Z,100278.44
2017-08-05T03:18:53.383Z,100278.94
2017-08-05T03:21:22.455Z,100280.52
2017-08-05T03:23:52.250Z,100279.12
2017-08-05T03:26:22.092Z,100282.05
2017-08-05T03:28:51.164Z,100283.93
2017-08-05T03:31:21.005Z,100288.66
2017-08-05T03:33:50.046Z,100291.28
2017-08-05T03:36:19.225Z,100289.83
2017-08-05T03:38:48.267Z,100284.75
2017-08-05T03:41:18.090Z,100281.28
2017-08-05T03:43:48.975Z,100280.61
2017-08-05T03:46:18.116Z,100275.43
2017-08-05T03:48:47.171Z,100277.78
2017-08-05T03:51:16.254Z,100283.84
2017-08-05T03:53:45.301Z,100277.39
2017-08-05T03:56:14.384Z,100276.80
2017-08-05T03:58:44.212Z,100261.95
2017-08-05T04:01:13.276Z,100270.11
2017-08-05T04:03:42.335Z,100265.89
2017-08-05T04:06:11.437Z,100248.61
2017-08-05T04:08:40.495Z,100244.77
2017-08-05T04:11:09.540Z,100236.27
2017-08-05T04:13:38.591Z,100230.53
2017-08-05T04:16:07.752Z,100235.64
2017-08-05T04:18:36.791Z,100241.50
2017-08-05T04:21:05.839Z,100243.41
2017-08-05T04:23:35.681Z,100245.05
2017-08-05T04:26:04.715Z,100246.81
2017-08-05T04:28:33.776Z,100246.16
2017-08-05T04:31:02.851Z,100236.33
2017-08-05T04:33:32.662Z,100246.34
2017-08-05T04:36:02.519Z,100248.53
2017-08-05T04:38:32.317Z,100247.46
2017-08-05T04:41:01.376Z,100246.02
2017-08-05T04:43:31.225Z,100239.48
2017-08-05T04:46:00.285Z,100232.66
2017-08-05T04:48:29.339Z,100241.95
2017-08-05T04:50:58.434Z,100246.66
2017-08-05T04:53:27.547Z,100244.65
2017-08-05T04:55:56.586Z,100243.95
2017-08-05T04:58:25.665Z,100246.50
2017-08-05T05:00:55.502Z,100245.46
2017-08-05T05:03:24.555Z,100249.58
2017-08-05T05:05:53.624Z,100240.89
2017-08-05T05:08:22.672Z,100232.53
2017-08-05T05:10:51.712Z,100233.04
2017-08-05T05:13:20.799Z,100238.70
2017-08-05T05:15:49.833Z,100241.06
2017-08-05T05:18:18.887Z,100235.02
2017-08-05T05:20:47.963Z,100230.36
2017-08-05T05:23:17.004Z,100227.52
2017-08-05T05:25:46.064Z,100223.48
2017-08-05T05:28:15.113Z,100221.41
2017-08-05T05:30:44.976Z,100232.30
2017-08-05T05:33:14.043Z,100234.88
2017-08-05T05:35:43.122Z,100227.02
2017-08-05T05:38:13.303Z,100231.03
2017-08-05T05:40:42.371Z,100229.40
2017-08-05T05:43:11.423Z,100222.11
2017-08-05T05:45:40.463Z,100216.25
2017-08-05T05:48:09.544Z,100214.73
2017-08-05T05:50:38.620Z,100213.58
2017-08-05T05:53:07.700Z,100218.14
2017-08-05T05:55:36.973Z,100216.25
2017-08-05T05:58:06.073Z,100217.81
2017-08-05T06:00:35.331Z,100216.78
2017-08-05T06:03:04.388Z,100208.27
2017-08-05T06:05:33.449Z,100205.08
2017-08-05T06:08:02.510Z,100207.70
2017-08-05T06:10:31.575Z,100207.47
2017-08-05T06:13:00.647Z,100211.98
2017-08-05T06:15:30.339Z,100217.97
2017-08-05T06:17:59.425Z,100209.63
2017-08-05T06:20:28.476Z,100208.26
2017-08-05T06:22:58.307Z,100212.20
2017-08-05T06:25:27.379Z,100205.70
2017-08-05T06:27:57.192Z,100204.61
2017-08-05T06:30:27.024Z,100211.99
2017-08-05T06:32:56.068Z,100230.23
2017-08-05T06:35:25.111Z,100237.02
2017-08-05T06:37:54.177Z,100232.02
2017-08-05T06:40:23.261Z,100226.90
2017-08-05T06:42:52.338Z,100220.14
2017-08-05T06:45:21.683Z,100212.77
2017-08-05T06:47:50.775Z,100214.41
2017-08-05T06:50:19.957Z,100207.95
2017-08-05T06:52:49.663Z,100189.72
2017-08-05T06:55:18.737Z,100205.43
2017-08-05T06:57:47.774Z,100216.31
2017-08-05T07:00:17.638Z,100211.38
2017-08-05T07:02:46.714Z,100214.31
2017-08-05T07:05:15.807Z,100213.94
2017-08-05T07:07:45.604Z,100215.69
2017-08-05T07:10:15.469Z,100203.66
2017-08-05T07:12:44.552Z,100208.34
2017-08-05T07:15:13.624Z,100206.46
2017-08-05T07:17:42.664Z,100202.16
2017-08-05T07:20:11.744Z,100202.68
2017-08-05T07:22:40.803Z,100207.20
2017-08-05T07:25:10.623Z,100207.98
2017-08-05T07:27:39.683Z,100200.93
2017-08-05T07:30:09.294Z,100197.39
2017-08-05T07:32:38.364Z,100207.69
2017-08-05T07:35:07.427Z,100204.06
2017-08-05T07:37:36.480Z,100208.93
2017-08-05T07:40:05.546Z,100208.20
2017-08-05T07:42:34.590Z,100201.59
2017-08-05T07:45:03.677Z,100198.81
2017-08-05T07:47:32.725Z,100199.38
2017-08-05T07:50:01.768Z,100198.41
2017-08-05T07:52:30.824Z,100190.35
2017-08-05T07:54:59.890Z,100188.40
2017-08-05T07:57:28.934Z,100190.87
2017-08-05T07:59:58.788Z,100191.99
2017-08-05T08:02:27.841Z,100191.72
2017-08-05T08:04:56.935Z,100181.23
2017-08-05T08:07:25.976Z,100172.88
2017-08-05T08:09:55.073Z,100183.45
2017-08-05T08:12:24.157Z,100186.20
2017-08-05T08:14:53.219Z,100184.18
2017-08-05T08:17:22.584Z,100184.69
2017-08-05T08:19:51.633Z,100191.74
2017-08-05T08:22:20.693Z,100192.53
2017-08-05T08:24:49.788Z,100196.45
2017-08-05T08:27:18.843Z,100199.26
2017-08-05T08:29:47.906Z,100189.50
2017-08-05T08:32:17.743Z,100189.15
2017-08-05T08:34:46.794Z,100181.67
2017-08-05T08:37:16.444Z,100184.81
2017-08-05T08:39:45.508Z,100181.71
2017-08-05T08:42:15.329Z,100180.22
2017-08-05T08:44:46.547Z,100188.88
2017-08-05T08:47:15.609Z,100182.27
2017-08-05T08:49:44.661Z,100194.44
2017-08-05T08:52:14.483Z,100197.39
2017-08-05T08:54:43.544Z,100198.55
2017-08-05T08:57:12.829Z,100206.04
2017-08-05T08:59:42.275Z,100207.63
2017-08-05T09:02:12.135Z,100217.53
2017-08-05T09:04:41.206Z,100216.97
2017-08-05T09:07:11.020Z,100200.96
2017-08-05T09:09:40.082Z,100202.30
2017-08-05T09:12:09.186Z,100213.61
2017-08-05T09:14:38.204Z,100205.69
2017-08-05T09:17:07.273Z,100194.75
2017-08-05T09:19:37.115Z,100195.94
2017-08-05T09:22:06.222Z,100192.98
2017-08-05T09:24:35.265Z,100186.69
2017-08-05T09:27:04.316Z,100177.24
2017-08-05T09:29:33.384Z,100166.34
2017-08-05T09:32:02.429Z,100149.61
2017-08-05T09:34:31.495Z,100169.67
2017-08-05T09:37:00.564Z,100177.86
2017-08-05T09:39:29.644Z,100180.00
2017-08-05T09:41:59.464Z,100180.98
2017-08-05T09:44:29.301Z,100181.85
2017-08-05T09:46:58.368Z,100186.03
2017-08-05T09:49:28.195Z,100198.91
2017-08-05T09:51:57.288Z,100202.59
2017-08-05T09:54:26.335Z,100202.15
2017-08-05T09:56:55.425Z,100202.83
2017-08-05T09:59:24.509Z,100204.02
2017-08-05T10:01:53.593Z,100208.75
2017-08-05T10:04:22.669Z,100209.93
2017-08-05T10:06:51.744Z,100215.70
2017-08-05T10:09:21.606Z,100211.50
2017-08-05T10:11:50.657Z,100216.46
2017-08-05T10:14:20.495Z,100208.20
2017-08-05T10:16:49.551Z,100214.56
2017-08-05T10:19:19.363Z,100214.30
2017-08-05T10:21:49.197Z,100221.59
2017-08-05T10:24:18.251Z,100233.94
2017-08-05T10:26:47.342Z,100229.41
2017-08-05T10:29:16.423Z,100230.76
2017-08-05T10:31:45.474Z,100235.84
2017-08-05T10:34:14.575Z,100237.79
2017-08-05T10:36:44.394Z,100238.96
2017-08-05T10:39:13.422Z,100241.87
2017-08-05T10:41:42.483Z,100242.64
2017-08-05T10:44:11.578Z,100249.33
2017-08-05T10:46:41.387Z,100248.53
2017-08-05T10:49:10.428Z,100243.96
2017-08-05T10:51:39.503Z,100250.92
2017-08-05T10:54:08.561Z,100254.97
2017-08-05T10:56:38.410Z,100251.23
2017-08-05T10:59:07.487Z,100258.30
2017-08-05T11:01:36.558Z,100244.44
2017-08-05T11:04:06.421Z,100253.78
2017-08-05T11:06:35.502Z,100254.30
2017-08-05T11:09:04.576Z,100262.27
2017-08-05T11:11:33.611Z,100254.86
2017-08-05T11:14:02.727Z,100264.22
2017-08-05T11:16:31.780Z,100267.37
2017-08-05T11:19:00.834Z,100268.58
2017-08-05T11:21:30.695Z,100275.58
2017-08-05T11:23:59.784Z,100268.53
2017-08-05T11:26:28.882Z,100268.02
2017-08-05T11:28:57.915Z,100268.52
2017-08-05T11:31:26.994Z,100264.80
2017-08-05T11:33:56.070Z,100270.30
2017-08-05T11:36:25.123Z,100272.55
2017-08-05T11:38:54.999Z,100273.42
2017-08-05T11:41:24.059Z,100273.12
2017-08-05T11:43:53.181Z,100267.72
2017-08-05T11:46:22.320Z,100263.15
2017-08-05T11:48:52.187Z,100257.73
2017-08-05T11:51:21.269Z,100257.06
2017-08-05T11:53:50.423Z,100257.66
2017-08-05T11:56:20.261Z,100257.66
2017-08-05T11:58:50.261Z,100257.53
2017-08-05T12:01:20.097Z,100259.31
2017-08-05T12:03:49.185Z,100258.86
2017-08-05T12:06:18.984Z,100263.06
2017-08-05T12:08:48.834Z,100268.36
2017-08-05T12:11:17.888Z,100267.75
2017-08-05T12:13:47.699Z,100275.85
2017-08-05T12:16:17.556Z,100269.80
2017-08-05T12:18:46.650Z,100272.11
2017-08-05T12:21:15.752Z,100286.60
2017-08-05T12:23:44.799Z,100284.61
2017-08-05T12:26:14.647Z,100284.16
2017-08-05T12:28:43.701Z,100292.22
2017-08-05T12:31:13.530Z,100292.25
2017-08-05T12:33:43.416Z,100291.67
2017-08-05T12:36:12.490Z,100292.52
2017-08-05T12:38:41.533Z,100295.01
2017-08-05T12:41:11.369Z,100297.17
2017-08-05T12:43:40.432Z,100291.47
2017-08-05T12:46:10.302Z,100291.66
2017-08-05T12:48:39.615Z,100302.03
2017-08-05T12:51:08.697Z,100303.05
2017-08-05T12:53:37.775Z,100300.75
2017-08-05T12:56:06.836Z,100303.31
2017-08-05T12:58:36.741Z,100299.09
2017-08-05T13:01:05.793Z,100313.25
2017-08-05T13:03:34.881Z,100316.20
2017-08-05T13:06:03.981Z,100321.55
2017-08-05T13:08:33.073Z,100321.78
2017-08-05T13:11:02.157Z,100315.08
2017-08-05T13:13:31.253Z,100316.02
2017-08-05T13:16:00.340Z,100319.62
2017-08-05T13:18:30.176Z,100329.16
2017-08-05T13:20:59.243Z,100318.23
2017-08-05T13:23:28.288Z,100316.92
2017-08-05T13:25:57.364Z,100316.41
2017-08-05T13:28:26.439Z,100322.61
2017-08-05T13:30:55.503Z,100311.28
2017-08-05T13:33:25.345Z,100310.56
2017-08-05T13:35:54.433Z,100323.21
2017-08-05T13:38:23.524Z,100319.13
2017-08-05T13:40:53.352Z,100318.01
2017-08-05T13:43:22.385Z,100323.38
2017-08-05T13:45:51.479Z,100332.84
2017-08-05T13:48:20.553Z,100336.25
2017-08-05T13:50:49.608Z,100334.21
2017-08-05T13:53:19.444Z,100333.02
2017-08-05T13:55:48.507Z,100342.31
2017-08-05T13:58:18.368Z,100343.50
2017-08-05T14:00:47.445Z,100347.67
2017-08-05T14:03:16.553Z,100358.66
2017-08-05T14:05:45.623Z,100372.61
2017-08-05T14:08:14.783Z,100366.30
2017-08-05T14:10:44.020Z,100371.93
2017-08-05T14:13:13.108Z,100373.31
2017-08-05T14:15:42.953Z,100374.49
2017-08-05T14:18:12.033Z,100374.21
2017-08-05T14:20:41.095Z,100370.26
2017-08-05T14:23:10.947Z,100365.91
2017-08-05T14:25:40.013Z,100367.20
2017-08-05T14:28:09.884Z,100365.05
2017-08-05T14:30:38.943Z,100358.97
2017-08-05T14:33:08.037Z,100370.92
2017-08-05T14:35:37.102Z,100369.42
2017-08-05T14:38:06.960Z,100358.97
2017-08-05T14:40:36.044Z,100366.45
2017-08-05T14:43:05.076Z,100365.27
2017-08-05T14:45:34.119Z,100363.57
2017-08-05T14:48:03.180Z,100371.53
2017-08-05T14:50:32.287Z,100368.88
2017-08-05T14:53:01.359Z,100376.05
2017-08-05T14:55:30.402Z,100365.36
2017-08-05T14:57:59.485Z,100366.60
2017-08-05T15:00:29.341Z,100360.14
2017-08-05T15:02:58.384Z,100360.99
2017-08-05T15:05:28.251Z,100365.91
2017-08-05T15:07:57.303Z,100365.58
2017-08-05T15:10:27.136Z,100365.28
2017-08-05T15:12:56.198Z,100367.50
2017-08-05T15:15:26.038Z,100365.76
2017-08-05T15:17:55.106Z,100368.33
2017-08-05T15:20:24.184Z,100378.03
2017-08-05T15:22:53.238Z,100373.12
2017-08-05T15:25:22.355Z,100376.01
2017-08-05T15:27:51.408Z,100386.23
2017-08-05T15:30:21.090Z,100382.67
2017-08-05T15:32:50.154Z,100386.63
2017-08-05T15:35:19.218Z,100390.55
2017-08-05T15:37:55.475Z,100392.06
2017-08-05T15:40:30.109Z,100394.77
2017-08-05T15:42:59.163Z,100408.50
2017-08-05T15:45:28.242Z,100431.19
2017-08-05T15:47:57.266Z,100443.27
2017-08-05T15:50:27.128Z,100446.19
2017-08-05T15:52:56.185Z,100457.32
2017-08-05T15:55:25.272Z,100465.61
2017-08-05T15:57:55.090Z,100466.68
2017-08-05T16:00:24.148Z,100465.45
2017-08-05T16:02:53.211Z,100466.04
2017-08-05T16:05:22.299Z,100470.55
2017-08-05T16:07:51.396Z,100468.90
2017-08-05T16:10:20.458Z,100469.25
2017-08-05T16:12:50.282Z,100473.98
2017-08-05T16:15:19.417Z,100475.81
2017-08-05T16:17:48.453Z,100472.27
2017-08-05T16:20:17.526Z,100473.02
2017-08-05T16:22:46.600Z,100473.97
2017-08-05T16:25:15.900Z,100473.75
2017-08-05T16:27:45.000Z,100476.16
2017-08-05T16:30:14.072Z,100477.28
2017-08-05T16:32:43.133Z,100477.49
2017-08-05T16:35:12.232Z,100486.62
2017-08-05T16:37:41.332Z,100484.95
2017-08-05T16:40:11.152Z,100486.06
2017-08-05T16:42:40.208Z,100479.05
2017-08-05T16:45:09.307Z,100475.85
2017-08-05T16:47:38.381Z,100482.70
2017-08-05T16:50:07.445Z,100487.17
2017-08-05T16:52:36.555Z,100495.92
2017-08-05T16:55:05.628Z,100499.48
2017-08-05T16:57:34.699Z,100497.29
2017-08-05T17:00:04.344Z,100501.05
2017-08-05T17:02:33.401Z,100501.48
2017-08-05T17:05:02.469Z,100509.63
2017-08-05T17:07:31.521Z,100502.98
2017-08-05T17:10:00.640Z,100500.50
2017-08-05T17:12:29.735Z,100502.67
2017-08-05T17:14:58.807Z,100506.39
2017-08-05T17:17:27.866Z,100504.91
2017-08-05T17:19:56.931Z,100509.66
2017-08-05T17:22:26.018Z,100511.55
2017-08-05T17:24:55.075Z,100515.19
2017-08-05T17:27:24.152Z,100510.66
2017-08-05T17:29:53.990Z,100521.75
2017-08-05T17:32:23.113Z,100523.16
2017-08-05T17:34:52.169Z,100524.47
2017-08-05T17:37:21.237Z,100529.84
2017-08-05T17:39:51.221Z,100532.75
2017-08-05T17:42:21.775Z,100541.03
2017-08-05T17:44:50.826Z,100531.09
2017-08-05T17:47:19.885Z,100527.94
2017-08-05T17:49:48.979Z,100531.14
2017-08-05T17:52:18.036Z,100539.60
2017-08-05T17:54:47.146Z,100531.30
2017-08-05T17:57:16.188Z,100546.17
2017-08-05T17:59:45.276Z,100541.87
2017-08-05T18:02:15.414Z,100542.52
2017-08-05T18:04:45.252Z,100536.61
2017-08-05T18:07:14.521Z,100544.50
2017-08-05T18:09:43.603Z,100548.70
2017-08-05T18:12:13.496Z,100552.06
2017-08-05T18:14:42.811Z,100559.21
2017-08-05T18:17:12.665Z,100568.66
2017-08-05T18:19:41.732Z,100572.39
2017-08-05T18:22:10.809Z,100574.88
2017-08-05T18:24:40.684Z,100578.81
2017-08-05T18:27:09.749Z,100583.31
2017-08-05T18:29:38.805Z,100579.13
2017-08-05T18:32:07.905Z,100577.05
2017-08-05T18:34:36.995Z,100581.47
2017-08-05T18:37:06.052Z,100588.05
2017-08-05T18:39:35.676Z,100585.98
2017-08-05T18:42:04.735Z,100594.58
2017-08-05T18:44:33.804Z,100602.77
2017-08-05T18:47:03.650Z,100607.86
2017-08-05T18:49:32.715Z,100612.72
2017-08-05T18:52:01.801Z,100611.66
2017-08-05T18:54:31.634Z,100612.66
2017-08-05T18:57:00.740Z,100617.13
2017-08-05T18:59:30.568Z,100619.34
2017-08-05T19:01:59.623Z,100619.56
2017-08-05T19:04:29.469Z,100621.18
2017-08-05T19:06:58.521Z,100623.05
2017-08-05T19:09:27.591Z,100622.31
2017-08-05T19:11:56.651Z,100615.47
2017-08-05T19:14:25.738Z,100622.89
2017-08-05T19:16:55.623Z,100627.06
2017-08-05T19:19:24.655Z,100633.41
2017-08-05T19:21:53.743Z,100633.83
2017-08-05T19:24:22.780Z,100644.59
2017-08-05T19:26:52.276Z,100642.25
2017-08-05T19:29:21.545Z,100647.86
2017-08-05T19:31:53.314Z,100645.66
2017-08-05T19:34:24.552Z,100651.23
2017-08-05T19:36:53.770Z,100650.87
2017-08-05T19:39:23.921Z,100656.12
2017-08-05T19:41:53.218Z,100656.41
2017-08-05T19:44:23.093Z,100667.50
2017-08-05T19:46:52.290Z,100663.06
2017-08-05T19:49:24.058Z,100667.32
2017-08-05T19:51:56.055Z,100665.66
2017-08-05T19:54:25.258Z,100667.36
2017-08-05T19:56:56.380Z,100667.43
2017-08-05T19:59:26.460Z,100666.09
2017-08-05T20:01:56.346Z,100670.34
2017-08-05T20:04:25.442Z,100672.08
2017-08-05T20:06:55.130Z,100673.95
2017-08-05T20:09:27.650Z,100671.45
2017-08-05T20:11:57.619Z,100673.11
2017-08-05T20:14:26.828Z,100675.77
2017-08-05T20:16:57.780Z,100679.02
2017-08-05T20:19:28.199Z,100692.06
2017-08-05T20:21:59.643Z,100696.75
2017-08-05T20:24:28.761Z,100700.75
2017-08-05T20:27:01.939Z,100695.66
2017-08-05T20:29:30.967Z,100697.97
2017-08-05T20:32:02.950Z,100691.97
2017-08-05T20:34:34.212Z,100695.11
2017-08-05T20:37:06.952Z,100693.70
2017-08-05T20:39:37.154Z,100695.60
2017-08-05T20:42:08.787Z,100694.91
2017-08-05T20:44:38.246Z,100692.34
2017-08-05T20:47:08.533Z,100707.78
2017-08-05T20:49:37.774Z,100706.02
2017-08-05T20:52:07.010Z,100705.40
2017-08-05T20:54:38.075Z,100705.58
2017-08-05T20:57:07.954Z,100717.49
2017-08-05T20:59:37.079Z,100714.34
2017-08-05T21:02:06.248Z,100709.50
2017-08-05T21:04:37.213Z,100707.73
2017-08-05T21:07:07.704Z,100709.95
2017-08-05T21:09:36.959Z,100716.59
2017-08-05T21:12:06.590Z,100712.83
2017-08-05T21:14:38.380Z,100715.09
2017-08-05T21:17:09.081Z,100723.18
2017-08-05T21:19:39.245Z,100726.42
2017-08-05T21:22:09.962Z,100726.60
2017-08-05T21:24:41.636Z,100729.42
2017-08-05T21:27:12.695Z,100723.41
2017-08-05T21:29:42.457Z,100723.86
2017-08-05T21:32:12.775Z,100725.23
2017-08-05T21:34:42.003Z,100728.55
2017-08-05T21:37:11.216Z,100737.12
2017-08-05T21:39:40.269Z,100730.72
2017-08-05T21:42:09.415Z,100728.50
2017-08-05T21:44:38.639Z,100730.23
2017-08-05T21:47:10.872Z,100728.11
2017-08-05T21:49:39.978Z,100738.23
2017-08-05T21:52:09.218Z,100742.34
2017-08-05T21:54:39.428Z,100740.62
2017-08-05T21:57:11.050Z,100737.98
2017-08-05T21:59:40.285Z,100737.26
2017-08-05T22:02:09.570Z,100740.66
2017-08-05T22:04:38.907Z,100731.73
2017-08-05T22:07:08.181Z,100730.09
2017-08-05T22:09:37.286Z,100729.92
2017-08-05T22:12:06.586Z,100731.64
2017-08-05T22:14:36.288Z,100742.66
2017-08-05T22:17:05.832Z,100736.96
2017-08-05T22:19:35.123Z,100743.55
2017-08-05T22:22:05.887Z,100749.61
2017-08-05T22:24:37.947Z,100742.92
2017-08-05T22:27:07.699Z,100748.81
2017-08-05T22:29:37.049Z,100751.25
2017-08-05T22:32:06.388Z,100770.49
2017-08-05T22:34:36.794Z,100774.91
2017-08-05T22:37:06.247Z,100778.72
2017-08-05T22:39:35.557Z,100784.28
2017-08-05T22:42:06.395Z,100780.84
2017-08-05T22:44:38.639Z,100782.86
2017-08-05T22:47:09.499Z,100789.94
2017-08-05T22:49:38.829Z,100793.75
2017-08-05T22:52:08.081Z,100803.83
2017-08-05T22:54:37.432Z,100792.60
2017-08-05T22:57:06.629Z,100799.80
2017-08-05T22:59:35.914Z,100801.00
2017-08-05T23:02:07.613Z,100797.19
2017-08-05T23:04:37.932Z,100800.55
2017-08-05T23:07:07.260Z,100798.56
2017-08-05T23:09:36.510Z,100796.49
2017-08-05T23:12:05.805Z,100797.06
2017-08-05T23:14:36.243Z,100796.27
2017-08-05T23:17:05.504Z,100801.58
2017-08-05T23:19:34.731Z,100804.66
2017-08-05T23:22:04.023Z,100805.23
2017-08-05T23:24:33.344Z,100802.27
2017-08-05T23:27:02.587Z,100806.78
2017-08-05T23:29:31.913Z,100802.84
2017-08-05T23:32:01.134Z,100809.00
2017-08-05T23:34:30.279Z,100816.20
2017-08-05T23:37:00.442Z,100818.09
2017-08-05T23:39:30.792Z,100824.02
2017-08-05T23:42:00.052Z,100825.73
2017-08-05T23:44:30.202Z,100823.92
2017-08-05T23:47:02.168Z,100826.88
2017-08-05T23:49:32.628Z,100832.37
2017-08-05T23:52:01.963Z,100832.59
2017-08-05T23:54:31.314Z,100829.27
2017-08-05T23:57:00.758Z,100831.44
2017-08-05T23:59:31.278Z,100835.68
